UGD880 HUEN-FZAA
Flight info
| Callsign | UGD880 |
|---|---|
| Flight time | 2h 37m |
| Altitude | 38000 |
| Route | MANDY1D MANDY UL432 KNM UL442 KIN UA613 ULVAS ULVAS1B |
| Aircraft | B77W/H-SDE1E2E3FGHIJ2J3J4J5M1RWXY/LB1D1 |
Departure
| Time | 2026-04-27 00:01 |
|---|---|
| Airport | Entebbe International Airport (HUEN) |
Arrival
| Time | 2026-04-27 02:38 |
|---|---|
| Airport | Ndjili International Airport (FZAA) |
| Time | Latitude | Longitude | Altitude | Speed | Heading |
|---|---|---|---|---|---|
| 2026-04-26 23:30 | 0.04531 | 32.44177 | 3785 ft | 0 kts | 81° |
| 2026-04-26 23:31 | 0.04533 | 32.44186 | 3785 ft | 0 kts | 81° |
| 2026-04-26 23:32 | 0.04530 | 32.44168 | 3785 ft | 11 kts | 81° |
| 2026-04-26 23:32 | 0.04517 | 32.44077 | 3788 ft | 0 kts | 95° |
| 2026-04-26 23:32 | 0.04531 | 32.44177 | 3785 ft | 0 kts | 81° |
| 2026-04-26 23:50 | 0.04532 | 32.44184 | 3785 ft | 3 kts | 81° |
| 2026-04-26 23:50 | 0.04531 | 32.44174 | 3785 ft | 4 kts | 81° |
| 2026-04-26 23:50 | 0.04526 | 32.44147 | 3792 ft | 4 kts | 81° |
| 2026-04-26 23:50 | 0.04522 | 32.44120 | 3786 ft | 4 kts | 81° |
| 2026-04-26 23:51 | 0.04518 | 32.44097 | 3787 ft | 3 kts | 105° |
| 2026-04-26 23:51 | 0.04523 | 32.44084 | 3788 ft | 2 kts | 134° |
| 2026-04-26 23:51 | 0.04522 | 32.44084 | 3788 ft | 7 kts | 140° |
| 2026-04-26 23:51 | 0.04496 | 32.44094 | 3789 ft | 0 kts | 168° |
| 2026-04-26 23:53 | 0.04490 | 32.44096 | 3785 ft | 2 kts | 168° |
| 2026-04-26 23:54 | 0.04470 | 32.44100 | 3785 ft | 4 kts | 168° |
| 2026-04-26 23:54 | 0.04436 | 32.44106 | 3788 ft | 6 kts | 171° |
| 2026-04-26 23:54 | 0.04390 | 32.44111 | 3788 ft | 8 kts | 173° |
| 2026-04-26 23:54 | 0.04332 | 32.44118 | 3792 ft | 9 kts | 173° |
| 2026-04-26 23:55 | 0.04264 | 32.44119 | 3792 ft | 10 kts | 185° |
| 2026-04-26 23:55 | 0.04218 | 32.44080 | 3786 ft | 9 kts | 244° |
| 2026-04-26 23:55 | 0.04182 | 32.44005 | 3785 ft | 11 kts | 220° |
| 2026-04-26 23:55 | 0.04114 | 32.43994 | 3785 ft | 11 kts | 175° |
| 2026-04-26 23:56 | 0.04038 | 32.44007 | 3788 ft | 11 kts | 169° |
| 2026-04-26 23:56 | 0.03956 | 32.44019 | 3786 ft | 13 kts | 171° |
| 2026-04-26 23:56 | 0.03860 | 32.44032 | 3785 ft | 14 kts | 174° |
| 2026-04-26 23:56 | 0.03755 | 32.44045 | 3784 ft | 16 kts | 172° |
| 2026-04-26 23:57 | 0.03639 | 32.44063 | 3785 ft | 17 kts | 171° |
| 2026-04-26 23:57 | 0.03514 | 32.44079 | 3785 ft | 19 kts | 174° |
| 2026-04-26 23:57 | 0.03376 | 32.44097 | 3781 ft | 21 kts | 172° |
| 2026-04-26 23:57 | 0.03231 | 32.44119 | 3783 ft | 21 kts | 171° |
| 2026-04-26 23:58 | 0.03078 | 32.44140 | 3772 ft | 23 kts | 173° |
| 2026-04-26 23:58 | 0.02906 | 32.44159 | 3775 ft | 26 kts | 172° |
| 2026-04-26 23:58 | 0.02723 | 32.44189 | 3768 ft | 27 kts | 172° |
| 2026-04-26 23:58 | 0.02526 | 32.44217 | 3758 ft | 30 kts | 172° |
| 2026-04-26 23:59 | 0.02369 | 32.44227 | 3763 ft | 17 kts | 193° |
| 2026-04-26 23:59 | 0.02328 | 32.44199 | 3771 ft | 0 kts | 229° |
| 2026-04-27 00:00 | 0.02310 | 32.44173 | 3757 ft | 1 kts | 242° |
| 2026-04-27 00:00 | 0.02310 | 32.44108 | 3765 ft | 17 kts | 296° |
| 2026-04-27 00:01 | 0.02465 | 32.44044 | 3768 ft | 37 kts | 353° |
| 2026-04-27 00:01 | 0.03016 | 32.43973 | 3778 ft | 133 kts | 352° |
| 2026-04-27 00:01 | 0.04256 | 32.43816 | 3980 ft | 212 kts | 353° |
| 2026-04-27 00:01 | 0.05814 | 32.43577 | 4952 ft | 242 kts | 347° |
| 2026-04-27 00:02 | 0.07488 | 32.43161 | 6267 ft | 252 kts | 338° |
| 2026-04-27 00:02 | 0.08881 | 32.42085 | 6876 ft | 266 kts | 302° |
| 2026-04-27 00:02 | 0.09421 | 32.40299 | 7614 ft | 271 kts | 267° |
| 2026-04-27 00:02 | 0.08848 | 32.38520 | 8428 ft | 274 kts | 233° |
| 2026-04-27 00:03 | 0.07419 | 32.37320 | 9289 ft | 275 kts | 207° |
| 2026-04-27 00:03 | 0.05664 | 32.36517 | 10118 ft | 281 kts | 201° |
| 2026-04-27 00:03 | 0.03832 | 32.35779 | 10864 ft | 289 kts | 201° |
| 2026-04-27 00:03 | 0.01888 | 32.34994 | 11251 ft | 312 kts | 201° |
| 2026-04-27 00:04 | -0.00127 | 32.34110 | 12017 ft | 317 kts | 205° |
| 2026-04-27 00:04 | -0.02025 | 32.33059 | 13298 ft | 305 kts | 211° |
| 2026-04-27 00:04 | -0.03736 | 32.31884 | 14558 ft | 294 kts | 216° |
| 2026-04-27 00:04 | -0.05328 | 32.30607 | 15410 ft | 297 kts | 220° |
| 2026-04-27 00:05 | -0.06883 | 32.29213 | 16102 ft | 304 kts | 222° |
| 2026-04-27 00:05 | -0.08426 | 32.27722 | 16803 ft | 313 kts | 224° |
| 2026-04-27 00:05 | -0.09964 | 32.26157 | 17610 ft | 317 kts | 225° |
| 2026-04-27 00:05 | -0.11475 | 32.24566 | 18464 ft | 320 kts | 226° |
| 2026-04-27 00:06 | -0.12993 | 32.22936 | 18972 ft | 322 kts | 226° |
| 2026-04-27 00:06 | -0.14522 | 32.21269 | 19090 ft | 329 kts | 226° |
| 2026-04-27 00:06 | -0.16063 | 32.19576 | 19079 ft | 329 kts | 226° |
| 2026-04-27 00:06 | -0.17592 | 32.17886 | 19071 ft | 327 kts | 227° |
| 2026-04-27 00:07 | -0.19112 | 32.16201 | 19274 ft | 326 kts | 227° |
| 2026-04-27 00:07 | -0.20641 | 32.14504 | 20006 ft | 330 kts | 227° |
| 2026-04-27 00:07 | -0.22179 | 32.12796 | 20859 ft | 331 kts | 227° |
| 2026-04-27 00:07 | -0.23727 | 32.11076 | 21626 ft | 335 kts | 227° |
| 2026-04-27 00:08 | -0.25300 | 32.09328 | 22324 ft | 342 kts | 227° |
| 2026-04-27 00:08 | -0.26910 | 32.07539 | 23027 ft | 349 kts | 227° |
| 2026-04-27 00:08 | -0.28546 | 32.05720 | 23707 ft | 356 kts | 227° |
| 2026-04-27 00:08 | -0.30221 | 32.03859 | 24231 ft | 364 kts | 227° |
| 2026-04-27 00:09 | -0.31927 | 32.01962 | 24831 ft | 370 kts | 227° |
| 2026-04-27 00:09 | -0.33663 | 32.00033 | 25447 ft | 375 kts | 227° |
| 2026-04-27 00:09 | -0.35418 | 31.98082 | 26057 ft | 380 kts | 227° |
| 2026-04-27 00:09 | -0.37197 | 31.96104 | 26647 ft | 386 kts | 227° |
| 2026-04-27 00:10 | -0.39006 | 31.94094 | 27242 ft | 392 kts | 227° |
| 2026-04-27 00:10 | -0.40843 | 31.92051 | 27852 ft | 397 kts | 227° |
| 2026-04-27 00:10 | -0.42700 | 31.89986 | 28465 ft | 402 kts | 227° |
| 2026-04-27 00:10 | -0.44562 | 31.87917 | 29048 ft | 408 kts | 227° |
| 2026-04-27 00:11 | -0.46465 | 31.85802 | 29672 ft | 412 kts | 227° |
| 2026-04-27 00:11 | -0.48394 | 31.83657 | 30238 ft | 417 kts | 227° |
| 2026-04-27 00:11 | -0.50340 | 31.81493 | 30751 ft | 421 kts | 227° |
| 2026-04-27 00:11 | -0.52305 | 31.79309 | 31261 ft | 424 kts | 227° |
| 2026-04-27 00:12 | -0.54282 | 31.77110 | 31734 ft | 428 kts | 227° |
| 2026-04-27 00:12 | -0.56285 | 31.74883 | 32185 ft | 432 kts | 227° |
| 2026-04-27 00:12 | -0.58312 | 31.72630 | 32630 ft | 436 kts | 227° |
| 2026-04-27 00:12 | -0.60348 | 31.70366 | 33047 ft | 441 kts | 227° |
| 2026-04-27 00:13 | -0.62396 | 31.68088 | 33450 ft | 445 kts | 227° |
| 2026-04-27 00:13 | -0.64490 | 31.65761 | 33835 ft | 450 kts | 227° |
| 2026-04-27 00:13 | -0.66593 | 31.63422 | 34199 ft | 454 kts | 227° |
| 2026-04-27 00:13 | -0.68685 | 31.61032 | 34545 ft | 457 kts | 229° |
| 2026-04-27 00:14 | -0.70714 | 31.58623 | 34865 ft | 461 kts | 230° |
| 2026-04-27 00:14 | -0.72771 | 31.56143 | 35148 ft | 466 kts | 230° |
| 2026-04-27 00:14 | -0.74845 | 31.53637 | 35437 ft | 470 kts | 230° |
| 2026-04-27 00:14 | -0.76951 | 31.51102 | 35691 ft | 475 kts | 230° |
| 2026-04-27 00:15 | -0.79078 | 31.48553 | 35893 ft | 480 kts | 230° |
| 2026-04-27 00:15 | -0.81243 | 31.45966 | 36031 ft | 488 kts | 230° |
| 2026-04-27 00:15 | -0.83427 | 31.43362 | 36181 ft | 492 kts | 230° |
| 2026-04-27 00:15 | -0.85635 | 31.40731 | 36389 ft | 495 kts | 230° |
| 2026-04-27 00:16 | -0.87850 | 31.38092 | 36639 ft | 496 kts | 230° |
| 2026-04-27 00:16 | -0.90076 | 31.35438 | 36891 ft | 497 kts | 230° |
| 2026-04-27 00:16 | -0.92273 | 31.32818 | 37133 ft | 498 kts | 230° |
| 2026-04-27 00:16 | -0.94514 | 31.30146 | 37323 ft | 500 kts | 230° |
| 2026-04-27 00:17 | -0.96752 | 31.27475 | 37486 ft | 502 kts | 230° |
| 2026-04-27 00:17 | -0.99001 | 31.24794 | 37659 ft | 504 kts | 230° |
| 2026-04-27 00:17 | -1.01265 | 31.22120 | 37840 ft | 505 kts | 228° |
| 2026-04-27 00:17 | -1.03617 | 31.19496 | 37960 ft | 507 kts | 227° |
| 2026-04-27 00:18 | -1.08430 | 31.14342 | 38058 ft | 510 kts | 226° |
| 2026-04-27 00:18 | -1.13263 | 31.09164 | 38063 ft | 508 kts | 226° |
| 2026-04-27 00:19 | -1.18043 | 31.03977 | 38072 ft | 507 kts | 227° |
| 2026-04-27 00:19 | -1.22815 | 30.98776 | 38088 ft | 508 kts | 227° |
| 2026-04-27 00:20 | -1.27619 | 30.93541 | 38101 ft | 512 kts | 227° |
| 2026-04-27 00:20 | -1.32241 | 30.88508 | 38097 ft | 516 kts | 227° |
| 2026-04-27 00:21 | -1.37109 | 30.83207 | 38093 ft | 518 kts | 227° |
| 2026-04-27 00:21 | -1.41993 | 30.77886 | 38098 ft | 520 kts | 227° |
| 2026-04-27 00:22 | -1.46858 | 30.72552 | 38102 ft | 519 kts | 228° |
| 2026-04-27 00:22 | -1.51593 | 30.67091 | 38105 ft | 518 kts | 229° |
| 2026-04-27 00:23 | -1.56277 | 30.61621 | 38114 ft | 517 kts | 229° |
| 2026-04-27 00:23 | -1.60937 | 30.56218 | 38122 ft | 516 kts | 229° |
| 2026-04-27 00:24 | -1.65643 | 30.50785 | 38122 ft | 516 kts | 229° |
| 2026-04-27 00:24 | -1.70343 | 30.45361 | 38144 ft | 516 kts | 229° |
| 2026-04-27 00:25 | -1.75046 | 30.39929 | 38147 ft | 517 kts | 229° |
| 2026-04-27 00:25 | -1.79749 | 30.34496 | 38166 ft | 517 kts | 229° |
| 2026-04-27 00:26 | -1.84466 | 30.29054 | 38173 ft | 518 kts | 229° |
| 2026-04-27 00:26 | -1.88409 | 30.24538 | 38177 ft | 518 kts | 229° |
| 2026-04-27 00:27 | -1.93146 | 30.19095 | 38182 ft | 519 kts | 231° |
| 2026-04-27 00:27 | -1.96954 | 30.13001 | 38195 ft | 518 kts | 246° |
| 2026-04-27 00:28 | -1.99264 | 30.06209 | 38189 ft | 516 kts | 257° |
| 2026-04-27 00:28 | -2.00916 | 29.99220 | 38182 ft | 516 kts | 257° |
| 2026-04-27 00:29 | -2.02687 | 29.92258 | 38178 ft | 516 kts | 256° |
| 2026-04-27 00:29 | -2.04505 | 29.85318 | 38181 ft | 515 kts | 256° |
| 2026-04-27 00:30 | -2.06318 | 29.78389 | 38179 ft | 515 kts | 256° |
| 2026-04-27 00:30 | -2.08114 | 29.71502 | 38167 ft | 514 kts | 256° |
| 2026-04-27 00:31 | -2.09916 | 29.64582 | 38169 ft | 513 kts | 257° |
| 2026-04-27 00:31 | -2.11712 | 29.57681 | 38170 ft | 512 kts | 257° |
| 2026-04-27 00:32 | -2.13503 | 29.50801 | 38153 ft | 511 kts | 257° |
| 2026-04-27 00:32 | -2.15282 | 29.43970 | 38154 ft | 510 kts | 257° |
| 2026-04-27 00:33 | -2.17070 | 29.37099 | 38148 ft | 510 kts | 256° |
| 2026-04-27 00:33 | -2.18854 | 29.30240 | 38137 ft | 509 kts | 257° |
| 2026-04-27 00:34 | -2.20637 | 29.23385 | 38136 ft | 509 kts | 257° |
| 2026-04-27 00:34 | -2.22421 | 29.16529 | 38125 ft | 508 kts | 257° |
| 2026-04-27 00:35 | -2.24189 | 29.09728 | 38126 ft | 508 kts | 257° |
| 2026-04-27 00:35 | -2.25974 | 29.02861 | 38118 ft | 508 kts | 257° |
| 2026-04-27 00:36 | -2.27739 | 28.96069 | 38112 ft | 507 kts | 257° |
| 2026-04-27 00:36 | -2.29517 | 28.89224 | 38108 ft | 507 kts | 257° |
| 2026-04-27 00:37 | -2.31294 | 28.82383 | 38101 ft | 508 kts | 257° |
| 2026-04-27 00:37 | -2.32910 | 28.75511 | 38104 ft | 507 kts | 259° |
| 2026-04-27 00:38 | -2.34278 | 28.68600 | 38095 ft | 507 kts | 260° |
| 2026-04-27 00:38 | -2.35642 | 28.61733 | 38088 ft | 507 kts | 259° |
| 2026-04-27 00:39 | -2.37061 | 28.54821 | 38072 ft | 507 kts | 259° |
| 2026-04-27 00:39 | -2.38493 | 28.47934 | 38068 ft | 506 kts | 259° |
| 2026-04-27 00:40 | -2.39926 | 28.41028 | 38060 ft | 506 kts | 259° |
| 2026-04-27 00:40 | -2.41353 | 28.34136 | 38046 ft | 506 kts | 259° |
| 2026-04-27 00:41 | -2.42783 | 28.27228 | 38038 ft | 506 kts | 259° |
| 2026-04-27 00:41 | -2.44208 | 28.20335 | 38015 ft | 506 kts | 259° |
| 2026-04-27 00:42 | -2.45624 | 28.13488 | 38016 ft | 506 kts | 259° |
| 2026-04-27 00:42 | -2.47049 | 28.06601 | 38003 ft | 506 kts | 259° |
| 2026-04-27 00:43 | -2.48478 | 27.99720 | 37995 ft | 505 kts | 259° |
| 2026-04-27 00:43 | -2.49912 | 27.92826 | 37982 ft | 506 kts | 259° |
| 2026-04-27 00:44 | -2.51342 | 27.85944 | 37981 ft | 506 kts | 259° |
| 2026-04-27 00:44 | -2.52771 | 27.79063 | 37976 ft | 506 kts | 259° |
| 2026-04-27 00:45 | -2.54202 | 27.72169 | 37971 ft | 506 kts | 259° |
| 2026-04-27 00:45 | -2.55624 | 27.65311 | 37961 ft | 505 kts | 259° |
| 2026-04-27 00:46 | -2.57053 | 27.58426 | 37967 ft | 505 kts | 259° |
| 2026-04-27 00:46 | -2.58479 | 27.51551 | 37956 ft | 505 kts | 259° |
| 2026-04-27 00:47 | -2.59906 | 27.44669 | 37960 ft | 505 kts | 259° |
| 2026-04-27 00:47 | -2.61328 | 27.37803 | 37950 ft | 504 kts | 259° |
| 2026-04-27 00:48 | -2.62754 | 27.30921 | 37950 ft | 504 kts | 259° |
| 2026-04-27 00:48 | -2.64176 | 27.24059 | 37953 ft | 504 kts | 259° |
| 2026-04-27 00:49 | -2.65600 | 27.17181 | 37952 ft | 504 kts | 259° |
| 2026-04-27 00:49 | -2.67011 | 27.10363 | 37949 ft | 504 kts | 259° |
| 2026-04-27 00:50 | -2.69141 | 27.00072 | 37952 ft | 504 kts | 259° |
| 2026-04-27 00:51 | -2.70558 | 26.93221 | 37949 ft | 504 kts | 259° |
| 2026-04-27 00:51 | -2.71976 | 26.86365 | 37947 ft | 504 kts | 259° |
| 2026-04-27 00:52 | -2.73397 | 26.79489 | 37945 ft | 504 kts | 259° |
| 2026-04-27 00:52 | -2.74820 | 26.72606 | 37949 ft | 505 kts | 259° |
| 2026-04-27 00:53 | -2.76240 | 26.65731 | 37949 ft | 505 kts | 259° |
| 2026-04-27 00:53 | -2.77656 | 26.58851 | 37943 ft | 506 kts | 259° |
| 2026-04-27 00:54 | -2.79065 | 26.51950 | 37948 ft | 506 kts | 259° |
| 2026-04-27 00:54 | -2.80475 | 26.45035 | 37941 ft | 506 kts | 259° |
| 2026-04-27 00:55 | -2.81880 | 26.38155 | 37947 ft | 506 kts | 259° |
| 2026-04-27 00:55 | -2.83293 | 26.31236 | 37943 ft | 506 kts | 259° |
| 2026-04-27 00:56 | -2.84690 | 26.24389 | 37943 ft | 506 kts | 259° |
| 2026-04-27 00:56 | -2.86101 | 26.17472 | 37940 ft | 506 kts | 259° |
| 2026-04-27 00:57 | -2.87510 | 26.10565 | 37936 ft | 506 kts | 259° |
| 2026-04-27 00:57 | -2.88918 | 26.03657 | 37935 ft | 506 kts | 259° |
| 2026-04-27 00:58 | -2.90326 | 25.96748 | 37936 ft | 506 kts | 259° |
| 2026-04-27 00:58 | -2.91722 | 25.89895 | 37939 ft | 506 kts | 259° |
| 2026-04-27 00:59 | -2.92943 | 25.82970 | 37934 ft | 506 kts | 262° |
| 2026-04-27 00:59 | -2.94020 | 25.76011 | 37937 ft | 506 kts | 262° |
| 2026-04-27 01:00 | -2.95114 | 25.69065 | 37933 ft | 506 kts | 262° |
| 2026-04-27 01:00 | -2.96241 | 25.62113 | 37932 ft | 506 kts | 261° |
| 2026-04-27 01:01 | -2.97376 | 25.55161 | 37941 ft | 506 kts | 261° |
| 2026-04-27 01:01 | -2.98509 | 25.48210 | 37939 ft | 506 kts | 262° |
| 2026-04-27 01:02 | -2.99632 | 25.41307 | 37934 ft | 506 kts | 262° |
| 2026-04-27 01:02 | -3.00760 | 25.34367 | 37936 ft | 505 kts | 262° |
| 2026-04-27 01:03 | -3.01888 | 25.27425 | 37936 ft | 505 kts | 262° |
| 2026-04-27 01:03 | -3.03016 | 25.20481 | 37939 ft | 505 kts | 262° |
| 2026-04-27 01:04 | -3.04097 | 25.13580 | 37938 ft | 505 kts | 263° |
| 2026-04-27 01:04 | -3.05053 | 25.06640 | 37939 ft | 505 kts | 263° |
| 2026-04-27 01:05 | -3.05997 | 24.99663 | 37943 ft | 505 kts | 263° |
| 2026-04-27 01:05 | -3.06633 | 24.95039 | 37939 ft | 505 kts | 263° |
| 2026-04-27 01:06 | -3.07039 | 24.92121 | 37937 ft | 505 kts | 263° |
| 2026-04-27 01:06 | -3.08009 | 24.85163 | 37940 ft | 505 kts | 263° |
| 2026-04-27 01:07 | -3.08982 | 24.78191 | 37939 ft | 506 kts | 263° |
| 2026-04-27 01:07 | -3.09945 | 24.71274 | 37939 ft | 506 kts | 263° |
| 2026-04-27 01:08 | -3.10917 | 24.64290 | 37942 ft | 506 kts | 263° |
| 2026-04-27 01:08 | -3.11888 | 24.57309 | 37946 ft | 506 kts | 263° |
| 2026-04-27 01:09 | -3.12856 | 24.50339 | 37946 ft | 506 kts | 263° |
| 2026-04-27 01:09 | -3.13826 | 24.43361 | 37945 ft | 506 kts | 263° |
| 2026-04-27 01:10 | -3.14793 | 24.36396 | 37948 ft | 505 kts | 263° |
| 2026-04-27 01:10 | -3.15763 | 24.29426 | 37946 ft | 505 kts | 263° |
| 2026-04-27 01:11 | -3.16729 | 24.22510 | 37947 ft | 505 kts | 263° |
| 2026-04-27 01:11 | -3.17699 | 24.15568 | 37947 ft | 505 kts | 263° |
| 2026-04-27 01:12 | -3.18667 | 24.08623 | 37949 ft | 505 kts | 263° |
| 2026-04-27 01:12 | -3.19641 | 24.01634 | 37947 ft | 505 kts | 263° |
| 2026-04-27 01:13 | -3.20612 | 23.94661 | 37949 ft | 506 kts | 263° |
| 2026-04-27 01:13 | -3.21580 | 23.87705 | 37945 ft | 506 kts | 263° |
| 2026-04-27 01:14 | -3.22397 | 23.81830 | 37946 ft | 506 kts | 263° |
| 2026-04-27 01:14 | -3.23364 | 23.74881 | 37945 ft | 507 kts | 262° |
| 2026-04-27 01:15 | -3.24335 | 23.67895 | 37951 ft | 507 kts | 262° |
| 2026-04-27 01:15 | -3.25306 | 23.60906 | 37940 ft | 507 kts | 262° |
| 2026-04-27 01:16 | -3.26276 | 23.53916 | 37942 ft | 507 kts | 262° |
| 2026-04-27 01:16 | -3.27265 | 23.46921 | 37949 ft | 507 kts | 262° |
| 2026-04-27 01:17 | -3.28274 | 23.39976 | 37948 ft | 507 kts | 262° |
| 2026-04-27 01:17 | -3.29286 | 23.32992 | 37947 ft | 507 kts | 262° |
| 2026-04-27 01:18 | -3.30294 | 23.26003 | 37947 ft | 507 kts | 262° |
| 2026-04-27 01:18 | -3.31300 | 23.19017 | 37948 ft | 507 kts | 262° |
| 2026-04-27 01:19 | -3.32305 | 23.12034 | 37950 ft | 507 kts | 262° |
| 2026-04-27 01:19 | -3.33311 | 23.05043 | 37951 ft | 507 kts | 262° |
| 2026-04-27 01:20 | -3.34312 | 22.98065 | 37947 ft | 507 kts | 262° |
| 2026-04-27 01:20 | -3.35312 | 22.91091 | 37948 ft | 507 kts | 262° |
| 2026-04-27 01:21 | -3.36308 | 22.84142 | 37951 ft | 507 kts | 262° |
| 2026-04-27 01:21 | -3.37313 | 22.77150 | 37954 ft | 507 kts | 262° |
| 2026-04-27 01:22 | -3.38323 | 22.70138 | 37949 ft | 507 kts | 262° |
| 2026-04-27 01:22 | -3.39329 | 22.63146 | 37949 ft | 507 kts | 262° |
| 2026-04-27 01:23 | -3.40333 | 22.56163 | 37946 ft | 507 kts | 262° |
| 2026-04-27 01:23 | -3.41337 | 22.49175 | 37949 ft | 507 kts | 262° |
| 2026-04-27 01:24 | -3.42331 | 22.42254 | 37948 ft | 507 kts | 262° |
| 2026-04-27 01:24 | -3.43332 | 22.35277 | 37945 ft | 507 kts | 262° |
| 2026-04-27 01:25 | -3.44338 | 22.28266 | 37940 ft | 507 kts | 262° |
| 2026-04-27 01:25 | -3.45341 | 22.21273 | 37946 ft | 507 kts | 262° |
| 2026-04-27 01:26 | -3.46342 | 22.14282 | 37947 ft | 507 kts | 262° |
| 2026-04-27 01:26 | -3.47342 | 22.07305 | 37944 ft | 507 kts | 262° |
| 2026-04-27 01:27 | -3.48342 | 22.00315 | 37947 ft | 507 kts | 261° |
| 2026-04-27 01:27 | -3.49337 | 21.93362 | 37949 ft | 507 kts | 261° |
| 2026-04-27 01:28 | -3.50337 | 21.86371 | 37947 ft | 507 kts | 261° |
| 2026-04-27 01:28 | -3.51336 | 21.79376 | 37950 ft | 508 kts | 261° |
| 2026-04-27 01:29 | -3.52334 | 21.72385 | 37952 ft | 508 kts | 261° |
| 2026-04-27 01:29 | -3.53333 | 21.65388 | 37949 ft | 508 kts | 261° |
| 2026-04-27 01:30 | -3.54334 | 21.58377 | 37946 ft | 508 kts | 261° |
| 2026-04-27 01:30 | -3.55331 | 21.51380 | 37952 ft | 508 kts | 261° |
| 2026-04-27 01:31 | -3.56330 | 21.44374 | 37951 ft | 508 kts | 261° |
| 2026-04-27 01:31 | -3.57325 | 21.37389 | 37952 ft | 508 kts | 261° |
| 2026-04-27 01:32 | -3.58323 | 21.30376 | 37950 ft | 507 kts | 261° |
| 2026-04-27 01:32 | -3.59311 | 21.23430 | 37949 ft | 507 kts | 261° |
| 2026-04-27 01:33 | -3.60305 | 21.16439 | 37951 ft | 507 kts | 261° |
| 2026-04-27 01:33 | -3.61297 | 21.09458 | 37953 ft | 506 kts | 261° |
| 2026-04-27 01:34 | -3.62288 | 21.02482 | 37948 ft | 506 kts | 261° |
| 2026-04-27 01:34 | -3.63278 | 20.95508 | 37951 ft | 506 kts | 261° |
| 2026-04-27 01:35 | -3.64267 | 20.88540 | 37952 ft | 505 kts | 261° |
| 2026-04-27 01:35 | -3.65258 | 20.81571 | 37955 ft | 505 kts | 261° |
| 2026-04-27 01:36 | -3.66251 | 20.74611 | 37952 ft | 505 kts | 261° |
| 2026-04-27 01:36 | -3.67241 | 20.67660 | 37953 ft | 505 kts | 261° |
| 2026-04-27 01:37 | -3.68226 | 20.60738 | 37956 ft | 505 kts | 261° |
| 2026-04-27 01:37 | -3.69214 | 20.53786 | 37952 ft | 504 kts | 261° |
| 2026-04-27 01:38 | -3.70201 | 20.46838 | 37955 ft | 504 kts | 261° |
| 2026-04-27 01:38 | -3.71184 | 20.39918 | 37958 ft | 504 kts | 261° |
| 2026-04-27 01:39 | -3.72173 | 20.32946 | 37956 ft | 504 kts | 261° |
| 2026-04-27 01:39 | -3.73159 | 20.25993 | 37957 ft | 504 kts | 261° |
| 2026-04-27 01:40 | -3.74137 | 20.19099 | 37955 ft | 503 kts | 261° |
| 2026-04-27 01:40 | -3.75119 | 20.12168 | 37954 ft | 503 kts | 261° |
| 2026-04-27 01:41 | -3.76104 | 20.05210 | 37953 ft | 503 kts | 261° |
| 2026-04-27 01:41 | -3.77085 | 19.98277 | 37956 ft | 503 kts | 261° |
| 2026-04-27 01:42 | -3.78068 | 19.91325 | 37959 ft | 503 kts | 261° |
| 2026-04-27 01:42 | -3.79048 | 19.84396 | 37954 ft | 503 kts | 261° |
| 2026-04-27 01:43 | -3.80027 | 19.77467 | 37956 ft | 503 kts | 261° |
| 2026-04-27 01:43 | -3.81006 | 19.70532 | 37954 ft | 503 kts | 261° |
| 2026-04-27 01:44 | -3.81980 | 19.63630 | 37955 ft | 503 kts | 261° |
| 2026-04-27 01:44 | -3.82958 | 19.56695 | 37962 ft | 503 kts | 261° |
| 2026-04-27 01:44 | -3.83447 | 19.53224 | 37789 ft | 501 kts | 261° |
| 2026-04-27 01:45 | -3.83932 | 19.49778 | 37497 ft | 495 kts | 261° |
| 2026-04-27 01:45 | -3.84386 | 19.46560 | 37257 ft | 490 kts | 261° |
| 2026-04-27 01:45 | -3.84861 | 19.43183 | 36991 ft | 485 kts | 261° |
| 2026-04-27 01:45 | -3.85330 | 19.39852 | 36743 ft | 481 kts | 261° |
| 2026-04-27 01:46 | -3.85796 | 19.36543 | 36489 ft | 478 kts | 261° |
| 2026-04-27 01:46 | -3.86257 | 19.33263 | 36246 ft | 474 kts | 261° |
| 2026-04-27 01:46 | -3.86714 | 19.30016 | 35987 ft | 467 kts | 261° |
| 2026-04-27 01:46 | -3.87159 | 19.26854 | 35733 ft | 460 kts | 261° |
| 2026-04-27 01:47 | -3.87607 | 19.23661 | 35482 ft | 453 kts | 261° |
| 2026-04-27 01:47 | -3.88038 | 19.20599 | 35243 ft | 447 kts | 261° |
| 2026-04-27 01:47 | -3.88468 | 19.17536 | 34992 ft | 441 kts | 261° |
| 2026-04-27 01:47 | -3.88892 | 19.14518 | 34753 ft | 437 kts | 262° |
| 2026-04-27 01:48 | -3.89314 | 19.11514 | 34529 ft | 435 kts | 262° |
| 2026-04-27 01:48 | -3.89733 | 19.08530 | 34301 ft | 434 kts | 262° |
| 2026-04-27 01:48 | -3.90157 | 19.05514 | 34080 ft | 433 kts | 262° |
| 2026-04-27 01:48 | -3.90571 | 19.02556 | 33844 ft | 431 kts | 262° |
| 2026-04-27 01:49 | -3.90991 | 18.99566 | 33588 ft | 429 kts | 262° |
| 2026-04-27 01:49 | -3.91400 | 18.96644 | 33336 ft | 427 kts | 262° |
| 2026-04-27 01:49 | -3.91815 | 18.93685 | 33072 ft | 425 kts | 262° |
| 2026-04-27 01:49 | -3.92221 | 18.90782 | 32831 ft | 423 kts | 262° |
| 2026-04-27 01:50 | -3.92633 | 18.87844 | 32575 ft | 421 kts | 262° |
| 2026-04-27 01:50 | -3.93036 | 18.84963 | 32335 ft | 419 kts | 262° |
| 2026-04-27 01:50 | -3.93441 | 18.82066 | 32085 ft | 417 kts | 262° |
| 2026-04-27 01:50 | -3.93834 | 18.79256 | 31852 ft | 415 kts | 262° |
| 2026-04-27 01:51 | -3.94241 | 18.76347 | 31602 ft | 413 kts | 262° |
| 2026-04-27 01:51 | -3.94637 | 18.73517 | 31363 ft | 411 kts | 262° |
| 2026-04-27 01:51 | -3.95033 | 18.70680 | 31130 ft | 409 kts | 262° |
| 2026-04-27 01:51 | -3.95425 | 18.67875 | 30892 ft | 407 kts | 263° |
| 2026-04-27 01:52 | -3.95817 | 18.65070 | 30657 ft | 405 kts | 263° |
| 2026-04-27 01:52 | -3.96201 | 18.62324 | 30425 ft | 403 kts | 263° |
| 2026-04-27 01:52 | -3.96589 | 18.59544 | 30218 ft | 401 kts | 263° |
| 2026-04-27 01:52 | -3.96973 | 18.56787 | 29974 ft | 399 kts | 263° |
| 2026-04-27 01:53 | -3.97357 | 18.54033 | 29704 ft | 397 kts | 263° |
| 2026-04-27 01:53 | -3.97739 | 18.51297 | 29444 ft | 395 kts | 263° |
| 2026-04-27 01:53 | -3.98118 | 18.48575 | 29106 ft | 396 kts | 263° |
| 2026-04-27 01:53 | -3.98499 | 18.45843 | 28719 ft | 395 kts | 263° |
| 2026-04-27 01:54 | -3.98878 | 18.43127 | 28338 ft | 392 kts | 263° |
| 2026-04-27 01:54 | -3.99254 | 18.40428 | 27956 ft | 389 kts | 263° |
| 2026-04-27 01:54 | -3.99627 | 18.37755 | 27578 ft | 386 kts | 263° |
| 2026-04-27 01:54 | -3.99997 | 18.35100 | 27211 ft | 383 kts | 263° |
| 2026-04-27 01:55 | -4.00362 | 18.32474 | 26849 ft | 380 kts | 263° |
| 2026-04-27 01:55 | -4.00726 | 18.29866 | 26489 ft | 377 kts | 263° |
| 2026-04-27 01:55 | -4.01086 | 18.27279 | 26132 ft | 374 kts | 263° |
| 2026-04-27 01:55 | -4.01444 | 18.24706 | 25788 ft | 371 kts | 263° |
| 2026-04-27 01:56 | -4.02153 | 18.19608 | 25099 ft | 366 kts | 263° |
| 2026-04-27 01:56 | -4.02499 | 18.17123 | 24773 ft | 364 kts | 263° |
| 2026-04-27 01:56 | -4.02846 | 18.14623 | 24433 ft | 362 kts | 263° |
| 2026-04-27 01:57 | -4.03191 | 18.12140 | 24106 ft | 360 kts | 263° |
| 2026-04-27 01:57 | -4.03537 | 18.09651 | 23781 ft | 358 kts | 263° |
| 2026-04-27 01:57 | -4.03877 | 18.07206 | 23445 ft | 356 kts | 263° |
| 2026-04-27 01:57 | -4.04218 | 18.04750 | 23035 ft | 351 kts | 263° |
| 2026-04-27 01:58 | -4.04548 | 18.02378 | 22633 ft | 340 kts | 263° |
| 2026-04-27 01:58 | -4.04871 | 18.00053 | 22234 ft | 331 kts | 263° |
| 2026-04-27 01:58 | -4.05183 | 17.97810 | 21854 ft | 326 kts | 263° |
| 2026-04-27 01:58 | -4.05499 | 17.95525 | 21514 ft | 333 kts | 263° |
| 2026-04-27 01:59 | -4.05817 | 17.93231 | 21179 ft | 336 kts | 263° |
| 2026-04-27 01:59 | -4.06142 | 17.90888 | 20812 ft | 337 kts | 263° |
| 2026-04-27 01:59 | -4.06359 | 17.89318 | 20578 ft | 337 kts | 263° |
| 2026-04-27 01:59 | -4.06785 | 17.86245 | 20118 ft | 336 kts | 263° |
| 2026-04-27 02:00 | -4.06999 | 17.84705 | 19892 ft | 336 kts | 263° |
| 2026-04-27 02:00 | -4.07320 | 17.82393 | 19552 ft | 336 kts | 263° |
| 2026-04-27 02:00 | -4.07641 | 17.80074 | 19207 ft | 335 kts | 263° |
| 2026-04-27 02:00 | -4.07960 | 17.77772 | 18863 ft | 333 kts | 263° |
| 2026-04-27 02:01 | -4.08280 | 17.75466 | 18532 ft | 332 kts | 263° |
| 2026-04-27 02:01 | -4.08596 | 17.73179 | 18207 ft | 331 kts | 263° |
| 2026-04-27 02:01 | -4.08911 | 17.70907 | 17836 ft | 330 kts | 263° |
| 2026-04-27 02:01 | -4.09225 | 17.68636 | 17448 ft | 329 kts | 263° |
| 2026-04-27 02:02 | -4.09538 | 17.66373 | 17075 ft | 327 kts | 263° |
| 2026-04-27 02:02 | -4.09851 | 17.64117 | 16709 ft | 327 kts | 263° |
| 2026-04-27 02:02 | -4.10163 | 17.61872 | 16399 ft | 324 kts | 263° |
| 2026-04-27 02:02 | -4.10472 | 17.59650 | 16146 ft | 319 kts | 263° |
| 2026-04-27 02:03 | -4.10776 | 17.57466 | 15903 ft | 314 kts | 263° |
| 2026-04-27 02:03 | -4.11072 | 17.55336 | 15655 ft | 310 kts | 263° |
| 2026-04-27 02:03 | -4.11367 | 17.53211 | 15413 ft | 307 kts | 263° |
| 2026-04-27 02:03 | -4.11661 | 17.51100 | 15175 ft | 304 kts | 263° |
| 2026-04-27 02:04 | -4.11952 | 17.49003 | 14936 ft | 302 kts | 263° |
| 2026-04-27 02:04 | -4.12241 | 17.46919 | 14701 ft | 301 kts | 263° |
| 2026-04-27 02:04 | -4.12530 | 17.44836 | 14486 ft | 304 kts | 263° |
| 2026-04-27 02:04 | -4.12822 | 17.42729 | 14266 ft | 306 kts | 263° |
| 2026-04-27 02:05 | -4.13115 | 17.40618 | 14050 ft | 307 kts | 263° |
| 2026-04-27 02:05 | -4.13409 | 17.38496 | 13830 ft | 306 kts | 263° |
| 2026-04-27 02:05 | -4.13700 | 17.36393 | 13579 ft | 306 kts | 263° |
| 2026-04-27 02:05 | -4.13990 | 17.34304 | 13328 ft | 305 kts | 263° |
| 2026-04-27 02:06 | -4.14282 | 17.32197 | 13081 ft | 305 kts | 263° |
| 2026-04-27 02:06 | -4.14573 | 17.30102 | 12826 ft | 303 kts | 263° |
| 2026-04-27 02:06 | -4.14862 | 17.28014 | 12578 ft | 302 kts | 263° |
| 2026-04-27 02:06 | -4.15150 | 17.25934 | 12332 ft | 300 kts | 263° |
| 2026-04-27 02:07 | -4.15435 | 17.23876 | 12095 ft | 299 kts | 263° |
| 2026-04-27 02:07 | -4.15721 | 17.21810 | 11849 ft | 297 kts | 263° |
| 2026-04-27 02:07 | -4.16004 | 17.19769 | 11600 ft | 295 kts | 263° |
| 2026-04-27 02:07 | -4.16285 | 17.17741 | 11359 ft | 294 kts | 263° |
| 2026-04-27 02:08 | -4.16563 | 17.15730 | 11125 ft | 292 kts | 263° |
| 2026-04-27 02:08 | -4.16843 | 17.13705 | 10891 ft | 290 kts | 263° |
| 2026-04-27 02:08 | -4.17116 | 17.11727 | 10656 ft | 288 kts | 263° |
| 2026-04-27 02:08 | -4.17393 | 17.09728 | 10421 ft | 287 kts | 263° |
| 2026-04-27 02:09 | -4.17666 | 17.07750 | 10192 ft | 285 kts | 263° |
| 2026-04-27 02:09 | -4.17939 | 17.05781 | 9961 ft | 284 kts | 263° |
| 2026-04-27 02:09 | -4.18205 | 17.03858 | 9728 ft | 283 kts | 263° |
| 2026-04-27 02:09 | -4.18475 | 17.01901 | 9472 ft | 281 kts | 263° |
| 2026-04-27 02:10 | -4.18743 | 16.99963 | 9210 ft | 280 kts | 263° |
| 2026-04-27 02:10 | -4.19009 | 16.98036 | 8958 ft | 279 kts | 263° |
| 2026-04-27 02:10 | -4.19274 | 16.96121 | 8739 ft | 278 kts | 263° |
| 2026-04-27 02:10 | -4.19539 | 16.94201 | 8478 ft | 277 kts | 263° |
| 2026-04-27 02:11 | -4.19802 | 16.92290 | 8235 ft | 275 kts | 263° |
| 2026-04-27 02:11 | -4.20064 | 16.90396 | 7995 ft | 275 kts | 262° |
| 2026-04-27 02:11 | -4.20324 | 16.88507 | 7758 ft | 273 kts | 263° |
| 2026-04-27 02:11 | -4.20582 | 16.86640 | 7528 ft | 273 kts | 262° |
| 2026-04-27 02:12 | -4.20841 | 16.84762 | 7293 ft | 272 kts | 262° |
| 2026-04-27 02:12 | -4.21100 | 16.82887 | 7063 ft | 271 kts | 262° |
| 2026-04-27 02:12 | -4.21358 | 16.81015 | 6830 ft | 271 kts | 262° |
| 2026-04-27 02:12 | -4.21615 | 16.79152 | 6595 ft | 270 kts | 262° |
| 2026-04-27 02:13 | -4.21871 | 16.77295 | 6365 ft | 269 kts | 262° |
| 2026-04-27 02:13 | -4.22126 | 16.75445 | 6122 ft | 268 kts | 262° |
| 2026-04-27 02:13 | -4.22380 | 16.73598 | 5880 ft | 267 kts | 262° |
| 2026-04-27 02:13 | -4.22633 | 16.71759 | 5634 ft | 265 kts | 262° |
| 2026-04-27 02:14 | -4.22877 | 16.69929 | 5396 ft | 264 kts | 263° |
| 2026-04-27 02:14 | -4.23003 | 16.68102 | 5145 ft | 262 kts | 269° |
| 2026-04-27 02:14 | -4.23031 | 16.66282 | 4913 ft | 261 kts | 269° |
| 2026-04-27 02:14 | -4.23043 | 16.64472 | 4677 ft | 259 kts | 270° |
| 2026-04-27 02:15 | -4.23057 | 16.62702 | 4559 ft | 252 kts | 269° |
| 2026-04-27 02:15 | -4.23074 | 16.60960 | 4503 ft | 251 kts | 269° |
| 2026-04-27 02:15 | -4.23095 | 16.59232 | 4489 ft | 244 kts | 269° |
| 2026-04-27 02:15 | -4.23118 | 16.57573 | 4479 ft | 231 kts | 269° |
| 2026-04-27 02:16 | -4.23142 | 16.56012 | 4462 ft | 217 kts | 269° |
| 2026-04-27 02:16 | -4.23165 | 16.54551 | 4467 ft | 207 kts | 269° |
| 2026-04-27 02:16 | -4.23189 | 16.53099 | 4489 ft | 208 kts | 269° |
| 2026-04-27 02:16 | -4.23214 | 16.51645 | 4490 ft | 210 kts | 269° |
| 2026-04-27 02:17 | -4.23240 | 16.50166 | 4501 ft | 213 kts | 269° |
| 2026-04-27 02:17 | -4.23265 | 16.48693 | 4508 ft | 213 kts | 269° |
| 2026-04-27 02:17 | -4.23292 | 16.47200 | 4495 ft | 213 kts | 269° |
| 2026-04-27 02:17 | -4.23318 | 16.45742 | 4486 ft | 212 kts | 269° |
| 2026-04-27 02:18 | -4.23345 | 16.44250 | 4491 ft | 210 kts | 269° |
| 2026-04-27 02:18 | -4.23372 | 16.42801 | 4485 ft | 209 kts | 269° |
| 2026-04-27 02:18 | -4.23399 | 16.41337 | 4487 ft | 208 kts | 269° |
| 2026-04-27 02:18 | -4.23425 | 16.39896 | 4490 ft | 208 kts | 269° |
| 2026-04-27 02:19 | -4.23451 | 16.38465 | 4498 ft | 208 kts | 269° |
| 2026-04-27 02:19 | -4.23478 | 16.37023 | 4506 ft | 209 kts | 269° |
| 2026-04-27 02:19 | -4.23505 | 16.35555 | 4502 ft | 210 kts | 269° |
| 2026-04-27 02:19 | -4.23531 | 16.34096 | 4504 ft | 211 kts | 269° |
| 2026-04-27 02:20 | -4.23559 | 16.32615 | 4509 ft | 212 kts | 269° |
| 2026-04-27 02:20 | -4.23586 | 16.31132 | 4500 ft | 213 kts | 269° |
| 2026-04-27 02:20 | -4.23613 | 16.29644 | 4504 ft | 213 kts | 269° |
| 2026-04-27 02:20 | -4.23640 | 16.28159 | 4505 ft | 214 kts | 269° |
| 2026-04-27 02:21 | -4.23668 | 16.26672 | 4502 ft | 214 kts | 269° |
| 2026-04-27 02:21 | -4.23695 | 16.25184 | 4498 ft | 213 kts | 269° |
| 2026-04-27 02:21 | -4.23722 | 16.23705 | 4493 ft | 212 kts | 269° |
| 2026-04-27 02:21 | -4.23749 | 16.22228 | 4491 ft | 210 kts | 269° |
| 2026-04-27 02:22 | -4.23776 | 16.20768 | 4491 ft | 209 kts | 269° |
| 2026-04-27 02:22 | -4.23802 | 16.19317 | 4491 ft | 208 kts | 269° |
| 2026-04-27 02:22 | -4.23828 | 16.17891 | 4493 ft | 207 kts | 269° |
| 2026-04-27 02:22 | -4.23854 | 16.16452 | 4498 ft | 207 kts | 269° |
| 2026-04-27 02:23 | -4.23880 | 16.15010 | 4505 ft | 207 kts | 269° |
| 2026-04-27 02:23 | -4.23907 | 16.13562 | 4511 ft | 208 kts | 269° |
| 2026-04-27 02:23 | -4.23933 | 16.12102 | 4511 ft | 210 kts | 269° |
| 2026-04-27 02:23 | -4.23960 | 16.10639 | 4516 ft | 211 kts | 269° |
| 2026-04-27 02:24 | -4.23986 | 16.09165 | 4512 ft | 213 kts | 269° |
| 2026-04-27 02:24 | -4.24013 | 16.07676 | 4511 ft | 214 kts | 269° |
| 2026-04-27 02:24 | -4.24040 | 16.06184 | 4510 ft | 214 kts | 269° |
| 2026-04-27 02:24 | -4.24067 | 16.04698 | 4499 ft | 213 kts | 269° |
| 2026-04-27 02:25 | -4.24094 | 16.03221 | 4497 ft | 211 kts | 269° |
| 2026-04-27 02:25 | -4.24120 | 16.01748 | 4491 ft | 210 kts | 269° |
| 2026-04-27 02:25 | -4.24146 | 16.00300 | 4497 ft | 208 kts | 269° |
| 2026-04-27 02:25 | -4.24173 | 15.98848 | 4491 ft | 207 kts | 269° |
| 2026-04-27 02:26 | -4.24198 | 15.97431 | 4495 ft | 206 kts | 269° |
| 2026-04-27 02:26 | -4.24224 | 15.95994 | 4500 ft | 206 kts | 269° |
| 2026-04-27 02:26 | -4.24249 | 15.94565 | 4507 ft | 206 kts | 269° |
| 2026-04-27 02:26 | -4.24275 | 15.93113 | 4511 ft | 208 kts | 269° |
| 2026-04-27 02:27 | -4.24301 | 15.91667 | 4513 ft | 210 kts | 269° |
| 2026-04-27 02:27 | -4.24328 | 15.90191 | 4514 ft | 211 kts | 269° |
| 2026-04-27 02:27 | -4.24354 | 15.88727 | 4512 ft | 213 kts | 269° |
| 2026-04-27 02:27 | -4.24380 | 15.87233 | 4511 ft | 213 kts | 269° |
| 2026-04-27 02:28 | -4.24407 | 15.85762 | 4507 ft | 213 kts | 269° |
| 2026-04-27 02:28 | -4.24433 | 15.84272 | 4503 ft | 212 kts | 269° |
| 2026-04-27 02:28 | -4.24459 | 15.82802 | 4495 ft | 211 kts | 269° |
| 2026-04-27 02:28 | -4.24485 | 15.81335 | 4495 ft | 209 kts | 269° |
| 2026-04-27 02:29 | -4.24511 | 15.79906 | 4496 ft | 207 kts | 269° |
| 2026-04-27 02:29 | -4.24537 | 15.78449 | 4498 ft | 206 kts | 269° |
| 2026-04-27 02:29 | -4.24561 | 15.77050 | 4538 ft | 205 kts | 269° |
| 2026-04-27 02:29 | -4.24587 | 15.75575 | 4545 ft | 210 kts | 269° |
| 2026-04-27 02:30 | -4.24613 | 15.74150 | 4501 ft | 198 kts | 269° |
| 2026-04-27 02:30 | -4.24636 | 15.72827 | 4477 ft | 181 kts | 269° |
| 2026-04-27 02:30 | -4.24658 | 15.71593 | 4335 ft | 179 kts | 269° |
| 2026-04-27 02:30 | -4.24680 | 15.70339 | 4153 ft | 176 kts | 269° |
| 2026-04-27 02:31 | -4.24701 | 15.69130 | 3977 ft | 175 kts | 269° |
| 2026-04-27 02:31 | -4.24723 | 15.67895 | 3820 ft | 173 kts | 269° |
| 2026-04-27 02:31 | -4.24759 | 15.66745 | 3655 ft | 164 kts | 261° |
| 2026-04-27 02:31 | -4.25178 | 15.65710 | 3440 ft | 158 kts | 242° |
| 2026-04-27 02:32 | -4.25685 | 15.64737 | 3309 ft | 157 kts | 241° |
| 2026-04-27 02:32 | -4.26223 | 15.63797 | 3144 ft | 154 kts | 239° |
| 2026-04-27 02:32 | -4.26779 | 15.62882 | 2989 ft | 155 kts | 238° |
| 2026-04-27 02:32 | -4.27347 | 15.61975 | 2885 ft | 152 kts | 238° |
| 2026-04-27 02:33 | -4.27918 | 15.61077 | 2845 ft | 154 kts | 237° |
| 2026-04-27 02:33 | -4.28494 | 15.60174 | 2808 ft | 153 kts | 237° |
| 2026-04-27 02:33 | -4.29061 | 15.59288 | 2801 ft | 152 kts | 237° |
| 2026-04-27 02:33 | -4.29627 | 15.58406 | 2817 ft | 147 kts | 237° |
| 2026-04-27 02:34 | -4.30175 | 15.57552 | 2802 ft | 144 kts | 237° |
| 2026-04-27 02:34 | -4.30668 | 15.56783 | 2793 ft | 139 kts | 237° |
| 2026-04-27 02:34 | -4.31184 | 15.55979 | 2796 ft | 137 kts | 237° |
| 2026-04-27 02:34 | -4.31700 | 15.55173 | 2805 ft | 139 kts | 237° |
| 2026-04-27 02:35 | -4.32222 | 15.54360 | 2804 ft | 140 kts | 237° |
| 2026-04-27 02:35 | -4.32747 | 15.53541 | 2806 ft | 140 kts | 236° |
| 2026-04-27 02:35 | -4.33284 | 15.52704 | 2658 ft | 144 kts | 237° |
| 2026-04-27 02:35 | -4.33808 | 15.51886 | 2476 ft | 138 kts | 237° |
| 2026-04-27 02:36 | -4.34326 | 15.51079 | 2303 ft | 136 kts | 237° |
| 2026-04-27 02:36 | -4.34830 | 15.50293 | 2128 ft | 135 kts | 237° |
| 2026-04-27 02:36 | -4.35340 | 15.49499 | 1972 ft | 135 kts | 237° |
| 2026-04-27 02:36 | -4.35848 | 15.48707 | 1784 ft | 135 kts | 237° |
| 2026-04-27 02:37 | -4.36350 | 15.47908 | 1601 ft | 136 kts | 237° |
| 2026-04-27 02:37 | -4.36849 | 15.47120 | 1449 ft | 134 kts | 237° |
| 2026-04-27 02:37 | -4.37360 | 15.46333 | 1262 ft | 135 kts | 238° |
| 2026-04-27 02:37 | -4.37860 | 15.45547 | 1103 ft | 129 kts | 237° |
| 2026-04-27 02:38 | -4.38338 | 15.44806 | 1020 ft | 124 kts | 237° |
| 2026-04-27 02:38 | -4.38786 | 15.44124 | 1015 ft | 103 kts | 237° |
| 2026-04-27 02:38 | -4.39073 | 15.43681 | 1014 ft | 55 kts | 237° |
| 2026-04-27 02:38 | -4.39249 | 15.43410 | 1014 ft | 39 kts | 237° |
| 2026-04-27 02:39 | -4.39378 | 15.43214 | 1013 ft | 31 kts | 236° |
| 2026-04-27 02:39 | -4.39519 | 15.42996 | 1011 ft | 40 kts | 237° |
| 2026-04-27 02:39 | -4.39667 | 15.42785 | 1010 ft | 23 kts | 224° |
| 2026-04-27 02:39 | -4.39708 | 15.42706 | 1010 ft | 0 kts | 283° |
| 2026-04-27 02:40 | -4.39686 | 15.42701 | 1010 ft | 7 kts | 13° |
| 2026-04-27 02:40 | -4.39648 | 15.42773 | 1010 ft | 19 kts | 70° |
| 2026-04-27 02:40 | -4.39564 | 15.42926 | 1010 ft | 31 kts | 56° |
| 2026-04-27 02:40 | -4.39428 | 15.43136 | 1012 ft | 37 kts | 57° |
| 2026-04-27 02:41 | -4.39290 | 15.43346 | 1015 ft | 35 kts | 56° |
| 2026-04-27 02:41 | -4.39159 | 15.43548 | 1014 ft | 35 kts | 57° |
| 2026-04-27 02:41 | -4.39021 | 15.43761 | 1013 ft | 37 kts | 57° |
| 2026-04-27 02:41 | -4.38885 | 15.43971 | 1014 ft | 33 kts | 57° |
| 2026-04-27 02:42 | -4.38863 | 15.44094 | 1014 ft | 12 kts | 136° |
| 2026-04-27 02:42 | -4.38920 | 15.44136 | 1015 ft | 0 kts | 146° |
| 2026-04-27 02:45 | -4.38923 | 15.44138 | 1015 ft | 1 kts | 146° |
| 2026-04-27 02:45 | -4.38930 | 15.44143 | 1015 ft | 2 kts | 146° |
| 2026-04-27 02:46 | -4.38941 | 15.44154 | 1015 ft | 3 kts | 127° |
| 2026-04-27 02:46 | -4.38951 | 15.44179 | 1015 ft | 5 kts | 107° |
| 2026-04-27 02:46 | -4.38946 | 15.44214 | 1015 ft | 6 kts | 71° |
| 2026-04-27 02:46 | -4.38923 | 15.44258 | 1015 ft | 9 kts | 59° |
| 2026-04-27 02:47 | -4.38883 | 15.44321 | 1016 ft | 12 kts | 57° |
| 2026-04-27 02:47 | -4.38856 | 15.44397 | 1016 ft | 12 kts | 104° |
| 2026-04-27 02:47 | -4.38855 | 15.44485 | 1016 ft | 14 kts | 65° |
| 2026-04-27 02:47 | -4.38772 | 15.44541 | 1016 ft | 16 kts | 24° |
| 2026-04-27 02:48 | -4.38718 | 15.44590 | 1016 ft | 16 kts | 61° |
| 2026-04-27 02:48 | -4.38739 | 15.44673 | 1016 ft | 7 kts | 156° |
| 2026-04-27 02:48 | -4.38766 | 15.44676 | 1016 ft | 0 kts | 176° |